Time;durP1;ratioP1;P1;durP2;ratioP2;P2;SDS_P1;SDS_P2;PMS_P1;PMS_P2;Temp;Humidity;BMP_temperature;BMP_pressure;BME280_temperature;BME280_humidity;BME280_pressure;Samples;Min_cycle;Max_cycle;Signal;HPM_P1;HPM_P2
2022/04/20 00:01:42;;;;;;;5.07;4.37;;;7.30;99.90;;;-141.84;53.01;17668.25;5030876;28;20259;-61
2022/04/20 00:04:12;;;;;;;5.03;4.50;;;7.20;99.90;;;-141.84;52.98;17678.41;5030736;28;20240;-60
2022/04/20 00:06:40;;;;;;;5.03;4.53;;;7.10;99.90;;;-141.84;53.46;17649.97;5030598;28;20316;-61
2022/04/20 00:09:08;;;;;;;5.73;5.10;;;7.00;99.90;;;-141.84;53.96;17664.19;5031184;28;20210;-61
2022/04/20 00:11:36;;;;;;;6.50;4.80;;;7.00;99.90;;;-141.84;54.36;17676.38;5031175;28;20313;-60
2022/04/20 00:14:04;;;;;;;5.13;4.60;;;6.90;99.90;;;-141.84;53.91;17654.03;5030333;28;20236;-61
2022/04/20 00:16:32;;;;;;;4.97;4.47;;;6.90;99.90;;;-141.84;53.63;17710.91;5030709;28;20240;-59
2022/04/20 00:19:00;;;;;;;5.10;4.40;;;6.90;99.90;;;-141.84;54.60;17645.91;5030613;28;20251;-60
2022/04/20 00:21:29;;;;;;;4.97;4.43;;;6.80;99.90;;;-141.84;55.14;17625.59;5030647;28;20211;-60
2022/04/20 00:23:57;;;;;;;6.03;4.53;;;6.70;99.90;;;-141.84;55.81;17627.63;5030866;28;20597;-60
2022/04/20 00:26:25;;;;;;;6.13;4.20;;;6.60;99.90;;;-141.84;56.36;17617.47;5030576;28;20311;-60
2022/04/20 00:28:53;;;;;;;4.70;4.27;;;6.50;99.90;;;-141.84;57.66;17570.75;5030399;28;20803;-59
2022/04/20 00:31:21;;;;;;;5.10;4.60;;;6.40;99.90;;;-141.84;58.56;17566.69;5030814;28;20318;-61
2022/04/20 00:33:49;;;;;;;5.23;4.73;;;6.30;99.90;;;-141.84;59.22;17603.25;5030305;28;20260;-60
2022/04/20 00:36:17;;;;;;;5.97;4.50;;;6.20;99.90;;;-141.84;59.27;17552.47;5030671;28;20376;-59
2022/04/20 00:38:46;;;;;;;5.87;4.53;;;6.20;99.90;;;-141.84;59.48;17558.56;5030579;28;20330;-60
2022/04/20 00:41:14;;;;;;;5.17;4.67;;;6.20;99.90;;;-141.84;59.84;17566.69;5030366;28;20235;-60
2022/04/20 00:43:43;;;;;;;5.60;4.80;;;6.10;99.90;;;-141.84;59.63;17550.44;5030342;28;20257;-60
2022/04/20 00:46:13;;;;;;;5.47;4.30;;;6.10;99.90;;;-141.84;58.78;17552.47;5030310;28;20224;-59
2022/04/20 00:48:43;;;;;;;6.20;4.47;;;6.10;99.90;;;-141.84;59.32;17542.31;5018907;28;20239;-60
2022/04/20 00:51:11;;;;;;;5.87;5.10;;;6.10;99.90;;;-141.84;59.61;17534.19;5010986;28;20214;-60
2022/04/20 00:53:39;;;;;;;6.60;4.77;;;6.10;99.90;;;-141.84;59.76;17544.34;5011072;28;20634;-60
2022/04/20 00:56:09;;;;;;;7.13;4.63;;;6.10;99.90;;;-141.84;60.06;17542.31;5010586;28;20250;-60
2022/04/20 00:58:41;;;;;;;4.67;4.23;;;6.00;99.90;;;-141.84;59.74;17530.13;5010568;28;20240;-59
2022/04/20 01:01:09;;;;;;;5.47;4.80;;;6.00;99.90;;;-141.84;59.22;17536.22;5010471;28;20221;-62
2022/04/20 01:03:37;;;;;;;5.20;4.50;;;6.00;99.90;;;-141.84;58.90;17574.81;5013486;28;20228;-61
2022/04/20 01:06:08;;;;;;;6.03;4.90;;;6.10;99.90;;;-141.84;59.41;17564.66;5011081;28;20292;-60
2022/04/20 01:08:36;;;;;;;5.40;4.50;;;6.10;99.90;;;-141.84;59.56;17540.28;5010599;28;20234;-62
2022/04/20 01:11:05;;;;;;;6.77;4.70;;;6.10;99.90;;;-141.84;60.59;17538.25;5010635;28;20237;-60
2022/04/20 01:13:34;;;;;;;5.07;4.57;;;6.10;99.90;;;-141.84;61.08;17509.81;5010346;28;20240;-61
2022/04/20 01:16:03;;;;;;;5.03;4.53;;;6.00;99.90;;;-141.84;61.47;17483.41;5029034;28;20224;-60
2022/04/20 01:18:31;;;;;;;5.20;4.23;;;5.90;99.90;;;-141.84;61.95;17469.19;5030775;28;20279;-61
2022/04/20 01:21:00;;;;;;;5.27;4.30;;;5.90;99.90;;;-141.84;62.16;17503.72;5034204;28;20290;-60
2022/04/20 01:23:28;;;;;;;6.87;4.37;;;5.90;99.90;;;-141.84;62.63;17499.66;5033326;28;20251;-61
2022/04/20 01:25:56;;;;;;;5.80;4.90;;;5.80;99.90;;;-141.84;63.61;17475.28;5033589;28;20307;-64
2022/04/20 01:28:24;;;;;;;6.60;4.63;;;5.70;99.90;;;-141.84;64.09;17452.97;5033477;28;20239;-59
2022/04/20 01:30:52;;;;;;;6.13;4.50;;;5.70;99.90;;;-141.84;63.24;17442.81;5033542;28;20250;-60
2022/04/20 01:33:20;;;;;;;6.53;5.10;;;5.70;99.90;;;-141.84;62.85;17477.31;5033293;28;20601;-61
2022/04/20 01:35:48;;;;;;;6.80;4.77;;;5.70;99.90;;;-141.84;63.60;17483.41;5033714;28;20678;-59
2022/04/20 01:38:18;;;;;;;6.23;4.83;;;5.70;99.90;;;-141.84;64.49;17408.28;5033308;28;20223;-60
2022/04/20 01:40:46;;;;;;;5.87;4.87;;;5.60;99.90;;;-141.84;65.46;17440.78;5032976;28;20597;-60
2022/04/20 01:43:14;;;;;;;5.07;4.60;;;5.60;99.90;;;-141.84;65.00;17426.56;5033375;28;20227;-61
2022/04/20 01:45:42;;;;;;;5.67;5.07;;;5.60;99.90;;;-141.84;63.88;17440.78;5033309;28;20233;-59
2022/04/20 01:48:10;;;;;;;9.93;5.00;;;5.60;99.90;;;-141.84;63.83;17436.72;5026134;28;20224;-60
2022/04/20 01:51:46;;;;;;;6.50;4.30;;;5.60;99.90;;;-141.84;65.07;17428.59;5013704;28;20220;-60
2022/04/20 01:53:27;;;;;;;6.23;4.80;;;5.50;99.90;;;-141.84;66.23;17418.44;5012882;28;20318;-59
2022/04/20 01:55:55;;;;;;;5.33;4.83;;;5.50;99.90;;;-141.84;65.76;17420.47;5013041;28;20814;-60
2022/04/20 01:58:23;;;;;;;4.87;4.33;;;5.50;99.90;;;-141.84;66.27;17379.84;5013250;28;20571;-60
2022/04/20 02:00:51;;;;;;;5.40;4.90;;;5.40;99.90;;;-141.84;67.09;17371.72;5030387;28;20223;-60
2022/04/20 02:03:19;;;;;;;6.77;4.90;;;5.40;99.90;;;-141.84;67.41;17367.66;5029173;28;20274;-60
2022/04/20 02:05:47;;;;;;;5.50;4.67;;;5.30;99.90;;;-141.84;67.24;17392.03;5013833;28;20208;-59
2022/04/20 02:08:15;;;;;;;4.93;4.43;;;5.30;99.90;;;-141.84;67.49;17400.16;5012898;28;20231;-60
2022/04/20 02:10:44;;;;;;;7.77;5.43;;;5.20;99.90;;;-141.84;67.47;17418.44;5018661;28;20310;-60
2022/04/20 02:13:12;;;;;;;5.83;5.00;;;5.20;99.90;;;-141.84;67.22;17379.84;5032861;28;20230;-61
2022/04/20 02:15:40;;;;;;;6.43;5.50;;;5.10;99.90;;;-141.84;67.19;17363.59;5032811;28;20312;-60
2022/04/20 02:18:08;;;;;;;5.77;5.03;;;5.20;99.90;;;-141.84;67.83;17375.78;5033372;28;20300;-60
2022/04/20 02:20:36;;;;;;;5.93;5.33;;;5.10;99.90;;;-141.84;68.02;17406.25;5032732;28;20567;-59
2022/04/20 02:23:05;;;;;;;6.87;5.53;;;5.10;99.90;;;-141.84;68.26;17359.53;5032453;28;20671;-60
2022/04/20 02:25:32;;;;;;;7.63;5.50;;;5.10;99.90;;;-141.84;68.43;17383.91;5032287;28;20318;-60
2022/04/20 02:28:02;;;;;;;6.13;5.23;;;5.10;99.90;;;-141.84;68.21;17394.06;5032576;28;20235;-59
2022/04/20 02:30:30;;;;;;;6.67;5.53;;;5.10;99.90;;;-141.84;67.83;17367.66;5031138;28;20598;-59
2022/04/20 02:32:58;;;;;;;7.53;5.23;;;5.10;99.90;;;-141.84;67.68;17396.09;5033194;28;20309;-60
2022/04/20 02:35:27;;;;;;;7.03;5.13;;;5.20;99.90;;;-141.84;67.47;17394.06;5032054;28;20329;-60
2022/04/20 02:37:55;;;;;;;5.87;5.17;;;5.20;99.90;;;-141.84;67.38;17367.66;5032063;28;20230;-60
2022/04/20 02:40:23;;;;;;;7.23;5.40;;;5.20;99.90;;;-141.84;67.92;17359.53;5032002;28;20245;-61
2022/04/20 02:42:51;;;;;;;5.73;5.10;;;5.30;99.90;;;-141.84;68.17;17371.72;5032035;28;20222;-60
2022/04/20 02:45:21;;;;;;;6.97;6.20;;;5.20;99.90;;;-141.84;67.57;17369.69;5032216;28;20312;-61
2022/04/20 02:47:50;;;;;;;5.70;5.10;;;5.30;99.90;;;-141.84;67.12;17387.97;5028302;28;20193;-61
2022/04/20 02:50:18;;;;;;;7.00;5.30;;;5.30;99.90;;;-141.84;67.89;17375.78;5011744;28;20235;-59
2022/04/20 02:52:46;;;;;;;7.23;5.63;;;5.30;99.90;;;-141.84;67.37;17373.75;5011901;28;20851;-59
2022/04/20 02:55:14;;;;;;;7.30;4.80;;;5.30;99.90;;;-141.84;66.68;17371.72;5014150;28;20225;-61
2022/04/20 02:57:42;;;;;;;6.70;4.80;;;5.30;99.90;;;-141.84;67.08;17377.81;5031630;28;20233;-60
2022/04/20 03:00:12;;;;;;;5.97;5.37;;;5.30;99.90;;;-141.84;68.47;17349.38;5031630;28;20684;-61
2022/04/20 03:02:42;;;;;;;6.57;5.53;;;5.20;99.90;;;-141.84;69.51;17357.50;5032352;28;20190;-62
2022/04/20 03:05:10;;;;;;;7.93;5.37;;;5.10;99.90;;;-141.84;69.63;17322.97;5012394;28;20665;-60
2022/04/20 03:07:38;;;;;;;6.00;5.40;;;5.10;99.90;;;-141.84;69.69;17331.09;5022933;28;20297;-62
2022/04/20 03:10:07;;;;;;;8.23;5.60;;;5.10;99.90;;;-141.84;70.69;17318.91;5031460;28;20319;-61
2022/04/20 03:12:36;;;;;;;8.20;5.93;;;5.00;99.90;;;-141.84;70.93;17339.22;5031369;28;20228;-61
2022/04/20 03:15:05;;;;;;;7.53;5.60;;;4.90;99.90;;;-141.84;69.66;17302.66;5032329;28;20312;-61
2022/04/20 03:17:33;;;;;;;6.93;5.63;;;5.00;99.90;;;-141.84;69.03;17335.16;5031274;28;20318;-60
2022/04/20 03:20:03;;;;;;;7.10;5.87;;;5.00;99.90;;;-141.84;68.10;17357.50;5031081;28;20582;-61
2022/04/20 03:22:31;;;;;;;7.60;5.47;;;5.00;99.90;;;-141.84;67.22;17337.19;5031438;28;20329;-60
2022/04/20 03:24:59;;;;;;;7.63;6.03;;;5.00;99.90;;;-141.84;68.15;17357.50;5031352;28;20231;-61
2022/04/20 03:27:27;;;;;;;7.50;6.03;;;5.00;99.90;;;-141.84;68.82;17353.44;5031357;28;20214;-60
2022/04/20 03:29:55;;;;;;;6.63;5.83;;;5.00;99.90;;;-141.84;69.41;17318.91;5031547;28;20644;-61
2022/04/20 03:32:24;;;;;;;7.50;5.93;;;5.00;99.90;;;-141.84;69.21;17365.63;5030995;28;20319;-60
2022/04/20 03:34:52;;;;;;;7.67;6.27;;;5.00;99.90;;;-141.84;69.52;17335.16;5030692;28;20281;-59
2022/04/20 03:37:21;;;;;;;7.37;6.60;;;5.00;99.90;;;-141.84;70.24;17320.94;5030940;28;20236;-60
2022/04/20 03:39:50;;;;;;;8.37;7.07;;;5.00;99.90;;;-141.84;70.36;17325.00;5031107;28;20236;-59
2022/04/20 03:42:18;;;;;;;6.50;5.90;;;4.90;99.90;;;-141.84;70.45;17322.97;5030683;28;20207;-58
2022/04/20 03:44:46;;;;;;;6.87;6.17;;;4.90;99.90;;;-141.84;70.51;17343.28;5031329;28;20233;-60
2022/04/20 03:47:14;;;;;;;7.03;6.33;;;4.90;99.90;;;-141.84;71.01;17325.00;5030760;28;20313;-60
2022/04/20 03:49:42;;;;;;;8.03;7.23;;;4.90;99.90;;;-141.84;71.49;17308.75;5010932;28;20231;-61
2022/04/20 03:52:10;;;;;;;8.47;6.63;;;4.90;99.90;;;-141.84;71.69;17290.47;5018845;28;20215;-60
2022/04/20 03:54:40;;;;;;;8.30;7.50;;;4.80;99.90;;;-141.84;71.97;17316.88;5030795;28;20230;-61
2022/04/20 03:57:10;;;;;;;7.47;6.77;;;4.80;99.90;;;-141.84;71.91;17300.63;5031336;28;20302;-60
2022/04/20 03:59:39;;;;;;;8.10;7.13;;;4.80;99.90;;;-141.84;71.93;17327.03;5030412;28;20239;-60
2022/04/20 04:02:08;;;;;;;8.47;7.23;;;4.80;99.90;;;-141.84;72.50;17304.69;5030511;28;20320;-60
2022/04/20 04:04:36;;;;;;;9.07;6.23;;;4.80;99.90;;;-141.84;72.43;17294.53;5030408;28;20237;-60
2022/04/20 04:07:04;;;;;;;7.93;6.50;;;4.80;99.90;;;-141.84;72.79;17325.00;5030733;28;20256;-60
2022/04/20 04:09:32;;;;;;;7.07;6.37;;;4.80;99.90;;;-141.84;73.41;17268.13;5030793;28;20317;-60
2022/04/20 04:12:02;;;;;;;8.57;6.77;;;4.80;99.90;;;-141.84;73.94;17286.41;5032729;28;20248;-60
2022/04/20 04:14:30;;;;;;;7.13;6.40;;;4.80;99.90;;;-141.84;74.31;17249.84;5031063;28;20314;-61
2022/04/20 04:16:58;;;;;;;7.37;6.53;;;4.80;99.90;;;-141.84;73.06;17282.34;5030683;28;20253;-60
2022/04/20 04:19:26;;;;;;;8.37;6.80;;;4.90;99.90;;;-141.84;72.98;17278.28;5030513;28;20230;-60
2022/04/20 04:21:54;;;;;;;6.97;6.27;;;5.00;99.90;;;-141.84;73.11;17276.25;5030600;28;20716;-60
2022/04/20 04:24:37;;;;;;;8.33;7.30;;;5.10;99.90;;;-141.84;73.50;17255.94;5030180;28;20768;-59
2022/04/20 04:27:09;;;;;;;7.07;6.33;;;5.20;99.90;;;-141.84;72.43;17282.34;5030979;28;20657;-60
2022/04/20 04:29:39;;;;;;;8.03;7.00;;;5.40;99.90;;;-141.84;73.01;17268.13;5029699;28;20257;-60
2022/04/20 04:32:08;;;;;;;9.27;6.67;;;5.40;99.90;;;-141.84;72.85;17233.59;5030349;28;20235;-60
2022/04/20 04:34:36;;;;;;;7.73;6.53;;;5.50;99.90;;;-141.84;72.64;17251.88;5030144;28;20256;-61
2022/04/20 04:37:06;;;;;;;10.10;7.03;;;5.60;99.90;;;-141.84;73.50;17272.19;5030455;28;20290;-60
2022/04/20 04:39:34;;;;;;;8.13;6.70;;;5.50;99.90;;;-141.84;73.72;17241.72;5030021;28;20783;-60
2022/04/20 04:42:02;;;;;;;8.03;6.80;;;5.50;99.90;;;-141.84;73.36;17257.97;5031079;28;20202;-61
2022/04/20 04:44:32;;;;;;;10.63;7.00;;;5.60;99.90;;;-141.84;74.75;17237.66;5030272;28;20228;-61
2022/04/20 04:49:46;;;;;;;8.33;6.50;;;5.40;99.90;;;-141.84;76.16;17215.31;5028986;28;20235;-59
2022/04/20 04:52:15;;;;;;;7.73;6.93;;;5.40;99.90;;;-141.84;76.21;17205.16;5030501;28;20611;-60
2022/04/20 04:54:43;;;;;;;8.43;7.63;;;5.40;99.90;;;-141.84;77.25;17195.00;5032876;28;20230;-61
2022/04/20 04:57:12;;;;;;;9.80;7.83;;;5.30;99.90;;;-141.84;77.93;17184.84;5034279;28;20217;-60
2022/04/20 04:59:43;;;;;;;7.93;7.13;;;5.30;99.90;;;-141.84;77.63;17160.47;5034368;28;20199;-60
2022/04/20 05:02:11;;;;;;;8.80;7.87;;;5.30;99.90;;;-141.84;77.67;17184.84;5034042;28;20231;-60
2022/04/20 05:04:40;;;;;;;10.43;7.33;;;5.30;99.90;;;-141.84;77.54;17164.53;5033673;28;20228;-61
2022/04/20 05:07:09;;;;;;;10.87;7.13;;;5.40;99.90;;;-141.84;77.85;17168.59;5034058;28;20227;-60
2022/04/20 05:09:37;;;;;;;8.73;7.27;;;5.40;99.90;;;-141.84;77.80;17186.88;5033591;28;20259;-61
2022/04/20 05:12:06;;;;;;;8.37;7.57;;;5.50;99.90;;;-141.84;76.87;17192.97;5034255;28;20581;-61
2022/04/20 05:14:38;;;;;;;9.93;7.77;;;5.60;99.90;;;-141.84;75.39;17195.00;5033720;28;20640;-60
2022/04/20 05:17:07;;;;;;;9.40;8.40;;;5.80;99.90;;;-141.84;74.87;17219.38;5033801;28;20318;-61
2022/04/20 05:19:35;;;;;;;9.17;7.57;;;5.90;99.90;;;-141.84;74.34;17233.59;5033631;28;20315;-61
2022/04/20 05:22:04;;;;;;;9.93;8.07;;;6.00;99.90;;;-141.84;73.24;17213.28;5033676;28;20307;-62
2022/04/20 05:24:35;;;;;;;9.50;8.10;;;6.10;99.90;;;-141.84;72.52;17225.47;5032376;28;20247;-61
2022/04/20 05:27:04;;;;;;;13.40;10.90;;;6.20;99.90;;;-141.84;71.02;17255.94;5034203;28;20196;-60
2022/04/20 05:29:32;;;;;;;10.67;7.77;;;6.30;99.90;;;-141.84;69.62;17290.47;5033416;28;20264;-60
2022/04/20 05:32:02;;;;;;;9.23;7.17;;;6.40;99.90;;;-141.84;68.94;17274.22;5033598;28;20345;-61
2022/04/20 05:34:33;;;;;;;8.30;7.27;;;6.40;99.90;;;-141.84;68.15;17302.66;5032986;28;20332;-59
2022/04/20 05:42:32;;;;;;;9.63;6.30;;;6.70;99.90;;;-141.84;62.43;17390.00;5033345;28;20311;-61
2022/04/20 05:45:02;;;;;;;8.17;7.27;;;6.80;99.90;;;-141.84;61.35;17381.88;5033543;28;20321;-61
2022/04/20 05:47:30;;;;;;;11.37;6.93;;;6.90;99.90;;;-141.84;59.81;17420.47;5032591;28;20256;-59
2022/04/20 05:50:00;;;;;;;8.93;5.97;;;7.00;99.90;;;-141.84;57.17;17493.56;5032737;28;20241;-61
2022/04/20 05:52:28;;;;;;;10.40;6.60;;;7.20;99.90;;;-141.84;57.34;17495.59;5033028;28;20229;-60
2022/04/20 05:54:57;;;;;;;9.67;6.27;;;7.30;99.90;;;-141.84;57.07;17526.06;5032837;28;20244;-60
2022/04/20 05:57:25;;;;;;;8.10;6.27;;;7.30;99.90;;;-141.84;57.14;17491.53;5032811;28;20740;-60
2022/04/20 05:59:53;;;;;;;8.97;6.27;;;7.30;99.90;;;-141.84;58.00;17481.38;5033548;28;20209;-60
2022/04/20 06:02:21;;;;;;;9.43;6.20;;;7.20;99.90;;;-141.84;58.44;17450.94;5032754;28;20733;-59
2022/04/20 06:04:49;;;;;;;11.47;6.17;;;7.20;99.90;;;-141.84;58.68;17467.16;5032161;28;20306;-60
2022/04/20 06:07:18;;;;;;;8.20;6.20;;;7.30;99.90;;;-141.84;57.47;17489.50;5032828;28;20229;-61
2022/04/20 06:09:46;;;;;;;8.17;6.70;;;7.40;99.90;;;-141.84;57.32;17526.06;5032520;28;20231;-60
2022/04/20 06:12:20;;;;;;;10.80;6.87;;;7.40;99.90;;;-141.84;57.16;17503.72;5032748;28;20286;-61
2022/04/20 06:14:48;;;;;;;10.90;7.00;;;7.60;99.90;;;-141.84;57.17;17511.84;5032993;28;20596;-60
2022/04/20 06:17:16;;;;;;;9.93;7.00;;;7.60;99.90;;;-141.84;57.42;17501.69;5032517;28;20638;-60
2022/04/20 06:19:44;;;;;;;8.73;6.60;;;7.60;99.90;;;-141.84;56.94;17469.19;5032293;28;20228;-60
2022/04/20 06:22:12;;;;;;;11.63;6.80;;;7.80;99.90;;;-141.84;56.90;17517.94;5032376;28;20591;-61
2022/04/20 06:24:41;;;;;;;11.37;6.47;;;8.00;99.90;;;-141.84;57.47;17501.69;5032367;28;20241;-61
2022/04/20 06:27:09;;;;;;;8.00;6.80;;;7.90;99.90;;;-141.84;55.91;17578.88;5032409;28;20206;-63
2022/04/20 06:29:37;;;;;;;6.83;5.90;;;8.00;99.90;;;-141.84;56.06;17536.22;5033033;28;20250;-60
2022/04/20 06:32:06;;;;;;;6.97;6.27;;;7.90;99.90;;;-141.84;55.76;17548.41;5032583;28;20229;-60
2022/04/20 06:34:35;;;;;;;7.40;6.67;;;8.10;99.90;;;-141.84;56.02;17513.88;5031907;28;20301;-60
2022/04/20 06:37:05;;;;;;;6.73;6.03;;;8.20;99.90;;;-141.84;55.88;17558.56;5031988;28;20225;-61
2022/04/20 06:39:33;;;;;;;8.67;6.57;;;8.30;99.90;;;-141.84;55.20;17568.72;5031689;28;20953;-61
2022/04/20 06:42:02;;;;;;;8.10;6.30;;;8.40;99.90;;;-141.84;53.91;17578.88;5032776;28;20205;-60
2022/04/20 06:44:30;;;;;;;7.97;5.80;;;8.30;99.90;;;-141.84;54.15;17574.81;5032112;28;20233;-61
2022/04/20 06:46:58;;;;;;;9.67;6.60;;;8.40;99.90;;;-141.84;54.31;17578.88;5032114;28;20629;-60
2022/04/20 06:49:26;;;;;;;7.00;6.30;;;8.40;99.90;;;-141.84;54.72;17570.75;5031785;28;20229;-61
2022/04/20 07:00:10;;;;;;;6.63;6.03;;;8.40;99.90;;;-141.84;53.53;17605.28;5009209;28;20214;-60
2022/04/20 07:02:38;;;;;;;7.13;6.17;;;8.60;99.90;;;-141.84;52.31;17611.38;5032419;28;20205;-58
2022/04/20 07:05:07;;;;;;;7.67;6.97;;;8.70;99.90;;;-141.84;52.37;17635.75;5031816;28;20357;-61
2022/04/20 07:07:35;;;;;;;11.60;6.67;;;8.70;99.90;;;-141.84;52.33;17627.63;5032136;28;20312;-60
2022/04/20 07:10:23;;;;;;;10.37;6.93;;;8.80;99.90;;;-141.84;50.69;17635.75;5031904;28;20230;-61
2022/04/20 07:12:53;;;;;;;9.40;6.53;;;8.70;99.90;;;-141.84;51.64;17676.38;5032266;28;20226;-60
2022/04/20 07:15:21;;;;;;;8.43;6.90;;;8.90;99.90;;;-141.84;51.85;17623.56;5032003;28;20214;-60
2022/04/20 07:17:49;;;;;;;8.57;6.70;;;8.90;99.90;;;-141.84;51.44;17645.91;5031130;28;20214;-60
2022/04/20 07:20:18;;;;;;;8.90;6.63;;;9.00;99.90;;;-141.84;51.19;17654.03;5030253;28;20236;-60
2022/04/20 07:22:49;;;;;;;8.00;6.87;;;9.00;99.90;;;-141.84;50.50;17680.44;5030837;28;20230;-60
2022/04/20 07:25:18;;;;;;;7.27;6.57;;;9.30;99.90;;;-141.84;50.61;17654.03;5030310;28;20240;-60
2022/04/20 07:27:48;;;;;;;10.10;6.87;;;9.40;99.90;;;-141.84;51.13;17662.16;5030494;28;20226;-60
2022/04/20 07:30:18;;;;;;;7.23;6.53;;;9.30;99.90;;;-141.84;52.28;17643.88;5030534;28;20217;-61
2022/04/20 07:32:47;;;;;;;9.60;7.00;;;9.30;99.90;;;-141.84;51.52;17645.91;5030619;28;20693;-59
2022/04/20 07:35:16;;;;;;;7.50;6.60;;;9.30;99.90;;;-141.84;52.76;17627.63;5030096;28;20233;-60
2022/04/20 07:37:44;;;;;;;8.03;6.27;;;9.20;99.90;;;-141.84;51.95;17639.81;5030149;28;20225;-60
2022/04/20 07:40:14;;;;;;;9.50;7.27;;;9.40;99.90;;;-141.84;51.98;17660.13;5030273;28;20230;-59
2022/04/20 07:42:42;;;;;;;9.13;6.20;;;9.40;99.90;;;-141.84;51.64;17660.13;5030177;28;20319;-59
2022/04/20 07:45:11;;;;;;;9.07;5.43;;;9.60;99.90;;;-141.84;51.20;17688.56;5030089;28;20759;-59
2022/04/20 07:47:40;;;;;;;6.20;5.60;;;9.70;99.90;;;-141.84;50.83;17637.78;5030287;28;20298;-59
2022/04/20 07:50:23;;;;;;;7.70;5.60;;;9.60;99.90;;;-141.84;51.55;17652.00;5030108;28;20321;-59
2022/04/20 07:52:55;;;;;;;6.10;5.50;;;9.60;99.90;;;-141.84;52.06;17647.94;5029879;28;20229;-61
2022/04/20 07:55:26;;;;;;;5.67;5.10;;;9.60;99.90;;;-141.84;51.73;17647.94;5029832;28;20237;-59
2022/04/20 07:57:56;;;;;;;7.60;5.20;;;9.60;99.90;;;-141.84;50.49;17672.31;5030111;28;20296;-59
2022/04/20 08:00:26;;;;;;;6.40;5.50;;;9.70;99.90;;;-141.84;50.30;17684.50;5030083;28;20560;-60
2022/04/20 08:03:12;;;;;;;6.60;5.10;;;9.70;99.90;;;-141.84;50.12;17645.91;5030412;28;20198;-61
2022/04/20 08:05:41;;;;;;;6.60;5.27;;;9.80;99.90;;;-141.84;49.73;17719.03;5029763;28;20473;-59
2022/04/20 08:08:11;;;;;;;7.17;5.40;;;10.00;99.90;;;-141.84;50.07;17672.31;5029799;28;20257;-60
2022/04/20 08:10:40;;;;;;;7.40;5.47;;;10.10;99.90;;;-141.84;50.00;17686.53;5029973;28;20236;-60
2022/04/20 08:15:54;;;;;;;6.80;6.10;;;10.40;99.90;;;-141.84;50.54;17698.72;5029855;28;20619;-61
2022/04/20 08:18:25;;;;;;;7.10;5.37;;;10.50;99.90;;;-141.84;49.79;17704.81;5029878;28;20208;-58
2022/04/20 08:20:53;;;;;;;6.33;5.60;;;10.50;99.90;;;-141.84;49.45;17721.06;5030163;28;20193;-59
2022/04/20 08:23:22;;;;;;;7.77;5.37;;;10.60;99.90;;;-141.84;47.64;17769.81;5029511;28;20228;-59
2022/04/20 08:25:49;;;;;;;9.60;5.23;;;10.60;99.90;;;-141.84;47.43;17792.16;5029797;28;20241;-60
2022/04/20 08:28:17;;;;;;;6.40;5.40;;;10.70;99.90;;;-141.84;47.62;17790.13;5031852;28;20221;-59
2022/04/20 08:30:45;;;;;;;6.97;5.07;;;11.00;99.90;;;-141.84;46.58;17857.16;5033953;28;20579;-60
2022/04/20 08:33:13;;;;;;;7.23;5.40;;;11.20;99.90;;;-141.84;46.66;17857.16;5033577;28;20317;-60
2022/04/20 08:35:42;;;;;;;8.13;5.23;;;11.30;99.90;;;-141.84;46.57;17859.19;5034254;28;20212;-59
2022/04/20 08:38:10;;;;;;;5.77;5.23;;;11.40;99.90;;;-141.84;46.37;17832.78;5033200;28;20226;-60
2022/04/20 08:40:39;;;;;;;7.43;5.23;;;11.50;99.90;;;-141.84;47.15;17824.66;5033741;28;20230;-59
2022/04/20 08:43:07;;;;;;;7.57;5.33;;;11.40;99.90;;;-141.84;46.56;17853.09;5033803;28;20226;-60
2022/04/20 08:45:37;;;;;;;5.67;5.13;;;11.50;99.90;;;-141.84;45.36;17879.50;5033579;28;20232;-60
2022/04/20 08:48:07;;;;;;;5.47;4.97;;;11.70;99.90;;;-141.84;45.40;17875.44;5027614;28;20214;-59
2022/04/20 08:50:36;;;;;;;6.70;5.13;;;11.80;99.90;;;-141.84;45.33;17895.75;5014375;28;20250;-61
2022/04/20 08:53:05;;;;;;;7.43;5.07;;;12.00;99.90;;;-141.84;45.47;17875.44;5014189;28;20231;-58
2022/04/20 08:55:33;;;;;;;5.93;5.20;;;11.90;99.90;;;-141.84;45.63;17916.06;5020769;28;20312;-59
2022/04/20 08:58:05;;;;;;;6.50;5.47;;;11.90;99.90;;;-141.84;44.71;17903.88;5033762;28;20716;-60
2022/04/20 09:00:34;;;;;;;5.47;5.03;;;12.00;99.90;;;-141.84;44.85;17889.66;5034140;28;20305;-63
2022/04/20 09:03:03;;;;;;;6.63;4.90;;;12.20;99.90;;;-141.84;44.19;17920.13;5034080;28;20202;-60
2022/04/20 09:05:34;;;;;;;5.70;5.00;;;12.40;99.90;;;-141.84;43.62;17962.81;5032359;28;20230;-60
2022/04/20 09:08:11;;;;;;;6.30;5.17;;;12.60;99.90;;;-141.84;44.52;17891.69;5017289;28;20729;-61
2022/04/20 09:10:41;;;;;;;6.60;5.23;;;12.60;99.90;;;-141.84;44.44;17922.16;5013152;28;20223;-61
2022/04/20 09:13:12;;;;;;;5.93;5.30;;;12.40;99.90;;;-141.84;43.18;17993.28;5013492;28;20231;-54
2022/04/20 09:15:41;;;;;;;5.30;4.77;;;12.70;99.90;;;-141.84;42.32;18033.91;5013481;28;20222;-54
2022/04/20 09:18:11;;;;;;;6.20;4.83;;;12.80;99.90;;;-141.84;42.87;17979.06;5014206;28;20207;-51
2022/04/20 09:20:40;;;;;;;5.57;4.63;;;12.70;99.90;;;-141.84;42.24;18040.00;5013216;28;20306;-55
2022/04/20 09:23:14;;;;;;;5.77;4.53;;;12.70;99.90;;;-141.84;41.37;18076.56;5012614;28;20242;-54
2022/04/20 09:25:51;;;;;;;7.23;4.83;;;13.00;99.90;;;-141.84;41.25;18070.47;5013132;28;20512;-60
2022/04/20 09:28:20;;;;;;;6.30;5.13;;;13.20;99.90;;;-141.84;41.60;18070.47;5013499;28;20314;-57
2022/04/20 09:30:52;;;;;;;6.35;5.18;;;13.30;99.90;;;-141.84;40.88;18094.84;5013208;28;20603;-56
2022/04/20 09:33:20;;;;;;;6.00;5.40;;;13.20;99.90;;;-141.84;41.61;18078.59;5017767;28;20224;-57
2022/04/20 09:35:52;;;;;;;6.07;5.33;;;13.10;99.90;;;-141.84;41.39;18102.97;5032940;28;20236;-56
2022/04/20 09:38:23;;;;;;;7.70;5.13;;;13.10;99.90;;;-141.84;42.25;17999.38;5033066;28;20230;-59
2022/04/20 09:40:51;;;;;;;5.20;4.70;;;13.10;99.90;;;-141.84;42.31;18029.84;5029748;28;20234;-55
2022/04/20 09:43:22;;;;;;;5.23;4.73;;;13.00;99.90;;;-141.84;42.61;18007.50;5012970;28;20227;-57
2022/04/20 09:46:04;;;;;;;6.23;4.60;;;13.20;99.90;;;-141.84;42.59;18025.78;5012937;28;20746;-57
2022/04/20 09:51:20;;;;;;;5.28;4.80;;;13.50;99.90;;;-141.84;41.94;18074.53;5013235;28;20190;-64
2022/04/20 09:53:50;;;;;;;6.23;4.87;;;13.70;99.90;;;-141.84;41.61;18127.34;5012561;28;20326;-63
2022/04/20 09:56:21;;;;;;;5.47;5.00;;;13.70;99.90;;;-141.84;42.19;18060.31;5012670;28;20317;-63
2022/04/20 09:58:59;;;;;;;6.35;5.18;;;13.50;99.90;;;-141.84;42.20;18050.16;5012617;28;20238;-61
2022/04/20 10:01:31;;;;;;;7.27;5.50;;;13.50;99.90;;;-141.84;42.66;18025.78;5012664;28;20222;-57
2022/04/20 10:04:01;;;;;;;9.50;5.60;;;13.30;99.90;;;-141.84;43.61;17985.16;5022718;28;20225;-54
2022/04/20 10:06:30;;;;;;;9.73;5.63;;;12.90;99.90;;;-141.84;44.53;17934.38;5032612;28;20255;-58
2022/04/20 10:09:01;;;;;;;6.70;5.47;;;12.60;99.90;;;-141.84;44.99;17940.47;5031775;28;20198;-56
2022/04/20 10:11:31;;;;;;;5.77;5.20;;;12.60;99.90;;;-141.84;45.01;17922.16;5031878;28;20250;-58
2022/04/20 10:16:49;;;;;;;5.87;5.27;;;13.00;99.90;;;-141.84;44.54;17952.66;5031498;28;20237;-57
2022/04/20 10:19:27;;;;;;;6.63;5.37;;;13.00;99.90;;;-141.84;44.81;17924.22;5032038;28;20612;-57
2022/04/20 10:21:57;;;;;;;5.97;4.97;;;12.80;99.90;;;-141.84;44.97;17916.06;5031733;28;20218;-58
2022/04/20 10:24:31;;;;;;;7.87;5.80;;;13.10;99.90;;;-141.84;44.50;17985.16;5031618;28;20305;-60
2022/04/20 10:27:09;;;;;;;7.30;5.80;;;13.20;99.90;;;-141.84;44.91;17966.88;5032216;28;20191;-60
2022/04/20 10:29:45;;;;;;;7.87;5.87;;;13.30;99.90;;;-141.84;45.24;17924.22;5031958;28;20225;-57
2022/04/20 10:32:22;;;;;;;7.73;5.70;;;13.10;99.90;;;-141.84;45.36;17924.22;5031486;28;20225;-60
2022/04/20 10:34:52;;;;;;;6.77;5.40;;;13.20;99.90;;;-141.84;44.93;17954.69;5031468;28;20264;-60
2022/04/20 10:37:25;;;;;;;7.73;5.97;;;13.40;99.90;;;-141.84;44.27;18009.53;5031908;28;20244;-60
2022/04/20 10:40:15;;;;;;;8.40;5.70;;;13.60;99.90;;;-141.84;43.32;18013.59;5031628;28;20221;-60
2022/04/20 10:42:44;;;;;;;7.57;5.90;;;13.70;99.90;;;-141.84;44.03;17985.16;5031429;28;20204;-58
2022/04/20 10:45:12;;;;;;;7.67;5.30;;;13.50;99.90;;;-141.84;44.44;17964.84;5019961;28;20305;-60